Weather forecasts are calculated to a 100 metre elevation grid, providing ultimate accuracy for high elevation routes. See the “severe weather” column for any noteworthy conditions.
For use of the snow symbols: HWC = high water content (wet snow). MWC = moderate water content. NWC = low water content (powder type). Confidence of snow accumulation is increased during incidence of NWC.


Time. Apparent Temperature Rain Cloud Dir Avg. Wind Gust. Wind Snow Accum. Chance of settle. Freezing height(beta) Dew Point Severe Weather
Sat 21st 16:00 14.2°C 0.0 mm 90% 9 mph 14 mph 0.00 cm % 1,422m 6.0°C
17:00 14.0°C 0.0 mm 90% 8 mph 12 mph 0.00 cm % 1,397m 6.0°C
18:00 13.5°C 0.0 mm 89% 7 mph 12 mph 0.00 cm % 1,352m 6.1°C
19:00 12.3°C rainfall in vicinity 0.1 mm 96% 7 mph 11 mph 0.00 cm % 1,234m 5.9°C
20:00 10.5°C 0.0 mm 71% 6 mph 10 mph 0.00 cm % 1,393m 5.5°C
21:00 8.5°C 0.0 mm 77% 6 mph 10 mph 0.00 cm % 1,412m 4.5°C
22:00 7.9°C 0.0 mm 83% 6 mph 10 mph 0.00 cm % 1,315m 4.1°C
23:00 7.1°C 0.0 mm 82% 6 mph 10 mph 0.00 cm % 1,183m 4.1°C
Sun 22nd 00:00 7.0°C 0.0 mm 85% 7 mph 11 mph 0.00 cm % 1,165m 4.4°C
01:00 6.9°C 0.0 mm 94% 7 mph 11 mph 0.00 cm % 1,146m 4.7°C
02:00 6.8°C 0.0 mm 97% 7 mph 12 mph 0.00 cm % 1,129m 4.4°C
03:00 6.6°C 0.0 mm 98% 7 mph 12 mph 0.00 cm % 1,098m 4.0°C
04:00 6.0°C 0.0 mm 98% 7 mph 12 mph 0.00 cm % 996m 3.2°C
05:00 6.6°C 0.0 mm 98% 7 mph 12 mph 0.00 cm % 1,100m 3.6°C
06:00 8.1°C 0.0 mm 99% 8 mph 13 mph 0.00 cm % 1,350m 4.9°C
07:00 9.6°C 0.0 mm 100% 10 mph 16 mph 0.00 cm % 1,606m 5.8°C
08:00 9.9°C 0.0 mm 100% 10 mph 16 mph 0.00 cm % 1,644m 6.5°C
09:00 11.1°C 0.0 mm 100% 12 mph 19 mph 0.00 cm % 1,842m 7.3°C
10:00 12.3°C 0.0 mm 100% 14 mph 22 mph 0.00 cm % 1,636m 8.1°C
11:00 12.7°C 0.0 mm 100% 13 mph 21 mph 0.00 cm % 1,696m 8.1°C
12:00 13.8°C light rain 0.4 mm 100% 16 mph 26 mph 0.00 cm % 1,833m 9.2°C
13:00 13.5°C light rain 0.3 mm 100% 15 mph 25 mph 0.00 cm % 2,250m 9.5°C
14:00 14.0°C rainfall in vicinity 0.3 mm 99% 17 mph 28 mph 0.00 cm % 1,865m 9.4°C
15:00 13.5°C light rain 0.5 mm 99% 15 mph 25 mph 0.00 cm % 1,799m 9.3°C
16:00 13.6°C 0.0 mm 99% 13 mph 20 mph 0.00 cm % 1,810m 8.8°C
17:00 14.0°C rainfall in vicinity 0.2 mm 99% 12 mph 19 mph 0.00 cm % 1,865m 8.8°C
18:00 13.4°C rainfall in vicinity 0.2 mm 96% 10 mph 16 mph 0.00 cm % 1,783m 9.2°C
19:00 12.1°C light rain 0.3 mm 99% 9 mph 14 mph 0.00 cm % 2,021m 9.7°C
20:00 11.0°C 0.0 mm 89% 6 mph 10 mph 0.00 cm % 2,202m 9.6°C
21:00 10.3°C 0.0 mm 91% 7 mph 11 mph 0.00 cm % 2,064m 9.3°C
22:00 9.9°C mist/fog in vicinity 0.0 mm 90% 7 mph 11 mph 0.00 cm % 1,974m 9.1°C poor vis, mist
23:00 9.7°C mist/fog in vicinity 0.0 mm 91% 7 mph 11 mph 0.00 cm % 1,930m 9.1°C poor vis, mist
Mon 23rd 00:00 9.6°C mist/fog in vicinity 0.0 mm 92% 8 mph 13 mph 0.00 cm % 1,914m 8.8°C poor vis, mist
01:00 9.4°C mist/fog in vicinity 0.0 mm 99% 7 mph 12 mph 0.00 cm % 1,878m 8.8°C poor vis, mist
02:00 9.1°C mist/fog in vicinity 0.0 mm 98% 6 mph 10 mph 0.00 cm % 1,812m 8.7°C poor vis, mist
03:00 9.1°C mist/fog in vicinity 0.0 mm 97% 6 mph 10 mph 0.00 cm % 1,810m 8.7°C poor vis, mist
04:00 9.0°C mist/fog in vicinity 0.0 mm 98% 5 mph 8 mph 0.00 cm % 1,808m 8.6°C poor vis, mist
05:00 9.1°C mist/fog 0.0 mm 98% 5 mph 8 mph 0.00 cm % 1,810m 8.7°C poor vis, mist
06:00 9.3°C mist/fog in vicinity 0.0 mm 99% 5 mph 8 mph 0.00 cm % 1,850m 8.5°C poor vis, mist
07:00 9.7°C 0.0 mm 100% 6 mph 9 mph 0.00 cm % 1,934m 8.1°C
08:00 10.2°C 0.0 mm 100% 6 mph 10 mph 0.00 cm % 1,695m 7.4°C
09:00 11.1°C 0.0 mm 100% 7 mph 11 mph 0.00 cm % 1,477m 6.7°C
10:00 11.8°C 0.0 mm 100% 7 mph 12 mph 0.00 cm % 1,178m 5.6°C
11:00 12.9°C 0.0 mm 100% 7 mph 11 mph 0.00 cm % 1,287m 4.7°C
12:00 13.7°C 0.0 mm 100% 7 mph 12 mph 0.00 cm % 1,365m 4.5°C
13:00 13.8°C 0.0 mm 100% 9 mph 14 mph 0.00 cm % 1,376m 4.4°C
14:00 12.9°C 0.0 mm 100% 11 mph 18 mph 0.00 cm % 1,289m 4.7°C
15:00 12.1°C rainfall in vicinity 0.2 mm 100% 11 mph 18 mph 0.00 cm % 1,205m 5.5°C
16:00 11.6°C light rain 0.3 mm 100% 12 mph 19 mph 0.00 cm % 1,159m 5.4°C
17:00 10.1°C light rain 0.5 mm 100% 12 mph 19 mph 0.00 cm % 1,350m 5.3°C
18:00 9.1°C light rain 0.4 mm 100% 11 mph 17 mph 0.00 cm % 1,515m 5.5°C
19:00 8.7°C rainfall in vicinity 0.2 mm 100% 8 mph 13 mph 0.00 cm % 1,455m 5.3°C
20:00 8.2°C 0.0 mm 100% 8 mph 12 mph 0.00 cm % 1,362m 5.4°C
21:00 7.8°C 0.0 mm 100% 7 mph 12 mph 0.00 cm % 1,305m 5.4°C
22:00 7.7°C 0.0 mm 100% 8 mph 13 mph 0.00 cm % 1,275m 5.3°C
23:00 7.3°C 0.0 mm 100% 9 mph 15 mph 0.00 cm % 1,212m 4.7°C
Tue 24th 00:00 6.6°C 0.0 mm 100% 10 mph 15 mph 0.00 cm % 1,104m 4.2°C
01:00 6.2°C 0.0 mm 100% 10 mph 16 mph 0.00 cm % 1,248m 4.2°C
02:00 6.0°C 0.0 mm 100% 11 mph 18 mph 0.00 cm % 1,198m 4.4°C
03:00 6.0°C 0.0 mm 96% 13 mph 20 mph 0.00 cm % 1,190m 4.4°C
04:00 6.1°C 0.0 mm 95% 14 mph 23 mph 0.00 cm % 1,226m 4.3°C
05:00 6.4°C 0.0 mm 95% 15 mph 25 mph 0.00 cm % 1,063m 4.0°C
06:00 6.9°C 0.0 mm 95% 17 mph 28 mph 0.00 cm % 1,144m 3.9°C
07:00 7.6°C 0.0 mm 89% 18 mph 30 mph 0.00 cm % 1,269m 3.8°C
08:00 8.6°C 0.0 mm 87% 19 mph 31 mph 0.00 cm % 1,150m 3.6°C
09:00 9.2°C 0.0 mm 89% 19 mph 31 mph 0.00 cm % 1,230m 3.4°C
10:00 10.0°C 0.0 mm 87% 19 mph 31 mph 0.00 cm % 1,001m 2.6°C
11:00 10.9°C 0.0 mm 85% 19 mph 31 mph 0.00 cm % 1,090m 2.3°C
12:00 11.3°C 0.0 mm 81% 19 mph 31 mph 0.00 cm % 1,134m 2.1°C
13:00 11.9°C 0.0 mm 58% 19 mph 31 mph 0.00 cm % 1,188m 2.3°C
14:00 11.9°C 0.0 mm 56% 19 mph 31 mph 0.00 cm % 1,189m 2.3°C
15:00 11.8°C 0.0 mm 48% 19 mph 30 mph 0.00 cm % 1,182m 2.2°C
16:00 11.5°C 0.0 mm 38% 19 mph 30 mph 0.00 cm % 1,150m 1.9°C
17:00 11.1°C 0.0 mm 32% 17 mph 28 mph 0.00 cm % 1,105m 2.3°C
18:00 10.6°C 0.0 mm 28% 14 mph 23 mph 0.00 cm % 1,060m 2.6°C
19:00 9.7°C 0.0 mm 17% 12 mph 20 mph 0.00 cm % 965m 3.1°C
20:00 8.3°C 0.0 mm 14% 11 mph 17 mph 0.00 cm % 1,104m 3.1°C
21:00 7.1°C 0.0 mm 12% 10 mph 16 mph 0.00 cm % 1,175m 3.3°C
22:00 6.5°C 0.0 mm 34% 9 mph 15 mph 0.00 cm % 1,083m 3.1°C
23:00 6.0°C 0.0 mm 45% 10 mph 15 mph 0.00 cm % 1,006m 3.0°C
Wed 25th 00:00 5.8°C 0.0 mm 54% 9 mph 15 mph 0.00 cm % 970m 3.0°C
01:00 6.1°C 0.0 mm 100% 9 mph 15 mph 0.00 cm % 1,012m 3.7°C
02:00 5.4°C 0.0 mm 95% 9 mph 14 mph 0.00 cm % 1,082m 3.6°C
03:00 5.1°C 0.0 mm 93% 8 mph 13 mph 0.00 cm % 1,014m 3.5°C
04:00 4.9°C 0.0 mm 95% 9 mph 15 mph 0.00 cm % 988m 3.5°C
05:00 5.7°C 0.0 mm 92% 11 mph 17 mph 0.00 cm % 945m 3.5°C
06:00 6.9°C 0.0 mm 94% 13 mph 20 mph 0.00 cm % 1,148m 3.1°C
07:00 8.3°C 0.0 mm 91% 17 mph 27 mph 0.00 cm % 1,110m 3.5°C
08:00 9.0°C 0.0 mm 95% 18 mph 28 mph 0.00 cm % 1,193m 4.2°C
09:00 9.6°C 0.0 mm 97% 17 mph 28 mph 0.00 cm % 1,281m 4.8°C
10:00 9.2°C rainfall in vicinity 0.2 mm 98% 18 mph 29 mph 0.00 cm % 1,529m 5.6°C
11:00 10.3°C light rain 0.6 mm 97% 20 mph 32 mph 0.00 cm % 1,723m 6.7°C
12:00 11.7°C light rain 0.4 mm 95% 22 mph 36 mph 0.00 cm % 1,170m 5.5°C Slight Gale
13:00 11.9°C rainfall in vicinity 0.1 mm 72% 24 mph 39 mph 0.00 cm % 1,193m 4.3°C Slight Gale
14:00 11.3°C 0.0 mm 85% 21 mph 35 mph 0.00 cm % 1,132m 3.9°C
15:00 11.8°C 0.0 mm 79% 23 mph 37 mph 0.00 cm % 1,183m 3.6°C Slight Gale